CPA748 VHHH-FAOR
Flight info
| Callsign | CPA748 |
|---|---|
| Flight time | N/A |
| Altitude | 32000 |
| Route | PECAN V11 IDOSI P901 IKELA/K0930F320 A1 PAPRA/N0503F320 R575 SMU W32 DORNA Y3 PUT P627 ANPUB/N0498F340 P627 KADAP R348 LATEP/N0489F360 R348 RUPIG UR348 TIDOB/N0483F380 UR348 TNV UB536 EROPA/N0473F280 UB536 ETIVI DCT IMKAN UT446 IBGUB |
| Aircraft | A346/H-SDE2E3FGHIJ3J4J5M1RWXY/LB1D1 |
Departure
| Time | 2026-05-07 21:01 |
|---|---|
| Airport | Hong Kong International Airport (VHHH) |
Arrival
| Time | N/A |
|---|---|
| Airport | O.R. Tambo International Airport (FAOR) |
| Time | Latitude | Longitude | Altitude | Speed | Heading |
|---|---|---|---|---|---|
| 2026-05-07 20:05 | 22.31462 | 113.93001 | 39 ft | 0 kts | 161° |
| 2026-05-07 20:45 | 22.31463 | 113.93001 | 13 ft | 1 kts | 161° |
| 2026-05-07 20:45 | 22.31485 | 113.92992 | 36 ft | 4 kts | 154° |
| 2026-05-07 20:45 | 22.31509 | 113.92980 | 37 ft | 3 kts | 160° |
| 2026-05-07 20:46 | 22.31528 | 113.92975 | 36 ft | 4 kts | 178° |
| 2026-05-07 20:46 | 22.31545 | 113.92978 | 38 ft | 4 kts | 217° |
| 2026-05-07 20:46 | 22.31556 | 113.92994 | 36 ft | 3 kts | 251° |
| 2026-05-07 20:46 | 22.31564 | 113.93021 | 37 ft | 4 kts | 251° |
| 2026-05-07 20:47 | 22.31572 | 113.93044 | 38 ft | 1 kts | 251° |
| 2026-05-07 20:49 | 22.31566 | 113.93030 | 37 ft | 4 kts | 249° |
| 2026-05-07 20:50 | 22.31551 | 113.92986 | 37 ft | 8 kts | 249° |
| 2026-05-07 20:50 | 22.31535 | 113.92942 | 40 ft | 11 kts | 249° |
| 2026-05-07 20:50 | 22.31508 | 113.92861 | 40 ft | 12 kts | 250° |
| 2026-05-07 20:50 | 22.31503 | 113.92781 | 40 ft | 11 kts | 297° |
| 2026-05-07 20:51 | 22.31531 | 113.92701 | 40 ft | 12 kts | 290° |
| 2026-05-07 20:51 | 22.31560 | 113.92615 | 40 ft | 13 kts | 290° |
| 2026-05-07 20:51 | 22.31592 | 113.92523 | 40 ft | 13 kts | 292° |
| 2026-05-07 20:51 | 22.31633 | 113.92394 | 40 ft | 14 kts | 274° |
| 2026-05-07 20:52 | 22.31626 | 113.92323 | 40 ft | 14 kts | 254° |
| 2026-05-07 20:52 | 22.31594 | 113.92220 | 40 ft | 15 kts | 251° |
| 2026-05-07 20:52 | 22.31561 | 113.92115 | 40 ft | 15 kts | 251° |
| 2026-05-07 20:52 | 22.31526 | 113.92008 | 40 ft | 15 kts | 251° |
| 2026-05-07 20:53 | 22.31481 | 113.91908 | 40 ft | 15 kts | 216° |
| 2026-05-07 20:53 | 22.31381 | 113.91913 | 40 ft | 15 kts | 163° |
| 2026-05-07 20:53 | 22.31278 | 113.91949 | 39 ft | 15 kts | 161° |
| 2026-05-07 20:53 | 22.31176 | 113.91987 | 40 ft | 15 kts | 161° |
| 2026-05-07 20:54 | 22.31074 | 113.92025 | 40 ft | 16 kts | 161° |
| 2026-05-07 20:54 | 22.30973 | 113.92063 | 40 ft | 16 kts | 161° |
| 2026-05-07 20:54 | 22.30870 | 113.92101 | 40 ft | 16 kts | 161° |
| 2026-05-07 20:54 | 22.30767 | 113.92140 | 40 ft | 16 kts | 160° |
| 2026-05-07 20:55 | 22.30663 | 113.92180 | 40 ft | 16 kts | 160° |
| 2026-05-07 20:55 | 22.30570 | 113.92157 | 40 ft | 15 kts | 229° |
| 2026-05-07 20:55 | 22.30529 | 113.92055 | 40 ft | 15 kts | 248° |
| 2026-05-07 20:55 | 22.30490 | 113.91949 | 40 ft | 15 kts | 248° |
| 2026-05-07 20:56 | 22.30455 | 113.91839 | 40 ft | 16 kts | 251° |
| 2026-05-07 20:56 | 22.30417 | 113.91721 | 40 ft | 17 kts | 251° |
| 2026-05-07 20:56 | 22.30378 | 113.91599 | 40 ft | 18 kts | 251° |
| 2026-05-07 20:56 | 22.30334 | 113.91462 | 40 ft | 21 kts | 251° |
| 2026-05-07 20:57 | 22.30285 | 113.91305 | 40 ft | 22 kts | 251° |
| 2026-05-07 20:57 | 22.30233 | 113.91143 | 40 ft | 23 kts | 251° |
| 2026-05-07 20:57 | 22.30181 | 113.90979 | 40 ft | 24 kts | 251° |
| 2026-05-07 20:57 | 22.30127 | 113.90809 | 40 ft | 24 kts | 251° |
| 2026-05-07 20:58 | 22.30073 | 113.90636 | 40 ft | 24 kts | 251° |
| 2026-05-07 20:58 | 22.30016 | 113.90461 | 40 ft | 25 kts | 250° |
| 2026-05-07 20:58 | 22.29958 | 113.90284 | 40 ft | 25 kts | 250° |
| 2026-05-07 20:58 | 22.29899 | 113.90105 | 40 ft | 25 kts | 251° |
| 2026-05-07 20:59 | 22.29843 | 113.89924 | 40 ft | 26 kts | 251° |
| 2026-05-07 20:59 | 22.29785 | 113.89782 | 40 ft | 13 kts | 215° |
| 2026-05-07 20:59 | 22.29693 | 113.89786 | 38 ft | 15 kts | 162° |
| 2026-05-07 20:59 | 22.29644 | 113.89866 | 38 ft | 10 kts | 83° |
| 2026-05-07 21:00 | 22.29649 | 113.89890 | 38 ft | 0 kts | 71° |
| 2026-05-07 21:00 | 22.29677 | 113.89980 | 38 ft | 39 kts | 71° |
| 2026-05-07 21:00 | 22.29842 | 113.90491 | 39 ft | 103 kts | 71° |
| 2026-05-07 21:01 | 22.30142 | 113.91419 | 40 ft | 157 kts | 71° |
| 2026-05-07 21:01 | 22.30551 | 113.92701 | 44 ft | 201 kts | 71° |
| 2026-05-07 21:01 | 22.31019 | 113.94189 | 505 ft | 211 kts | 71° |
| 2026-05-07 21:01 | 22.31502 | 113.95699 | 1190 ft | 214 kts | 71° |
| 2026-05-07 21:02 | 22.32001 | 113.97223 | 1921 ft | 216 kts | 71° |
| 2026-05-07 21:02 | 22.32495 | 113.98745 | 2501 ft | 214 kts | 71° |
| 2026-05-07 21:02 | 22.32991 | 114.00280 | 3049 ft | 219 kts | 71° |
| 2026-05-07 21:02 | 22.33494 | 114.01838 | 3514 ft | 223 kts | 71° |
| 2026-05-07 21:03 | 22.33748 | 114.03524 | 3731 ft | 235 kts | 99° |
| 2026-05-07 21:03 | 22.33072 | 114.05152 | 3944 ft | 246 kts | 136° |
| 2026-05-07 21:03 | 22.31592 | 114.06104 | 4188 ft | 256 kts | 170° |
| 2026-05-07 21:03 | 22.29788 | 114.06381 | 4499 ft | 268 kts | 173° |
| 2026-05-07 21:04 | 22.27919 | 114.06650 | 4943 ft | 274 kts | 173° |
| 2026-05-07 21:04 | 22.25993 | 114.06951 | 5327 ft | 283 kts | 172° |
| 2026-05-07 21:04 | 22.24058 | 114.07267 | 5983 ft | 280 kts | 172° |
| 2026-05-07 21:04 | 22.22133 | 114.07588 | 6564 ft | 280 kts | 173° |
| 2026-05-07 21:05 | 22.20197 | 114.07910 | 7056 ft | 283 kts | 173° |
| 2026-05-07 21:05 | 22.18244 | 114.08234 | 7524 ft | 286 kts | 173° |
| 2026-05-07 21:05 | 22.16254 | 114.08470 | 7993 ft | 288 kts | 179° |
| 2026-05-07 21:05 | 22.14243 | 114.08465 | 8467 ft | 290 kts | 185° |
| 2026-05-07 21:06 | 22.12224 | 114.08325 | 8934 ft | 292 kts | 185° |
| 2026-05-07 21:06 | 22.10189 | 114.08166 | 9414 ft | 295 kts | 186° |
| 2026-05-07 21:06 | 22.08131 | 114.08006 | 9867 ft | 297 kts | 186° |
| 2026-05-07 21:06 | 22.06056 | 114.07848 | 10232 ft | 303 kts | 186° |
| 2026-05-07 21:07 | 22.03906 | 114.07684 | 10422 ft | 314 kts | 186° |
| 2026-05-07 21:07 | 22.01690 | 114.07517 | 10614 ft | 325 kts | 185° |
| 2026-05-07 21:07 | 21.99431 | 114.07348 | 10814 ft | 336 kts | 185° |
| 2026-05-07 21:07 | 21.97060 | 114.07171 | 11010 ft | 347 kts | 185° |
| 2026-05-07 21:08 | 21.94585 | 114.06987 | 11194 ft | 358 kts | 185° |
| 2026-05-07 21:08 | 21.92062 | 114.06800 | 11389 ft | 368 kts | 185° |
| 2026-05-07 21:08 | 21.89470 | 114.06608 | 11573 ft | 379 kts | 185° |
| 2026-05-07 21:08 | 21.86808 | 114.06411 | 11821 ft | 387 kts | 185° |
| 2026-05-07 21:09 | 21.84148 | 114.06216 | 12234 ft | 390 kts | 185° |
| 2026-05-07 21:09 | 21.81435 | 114.06017 | 12704 ft | 391 kts | 185° |
| 2026-05-07 21:09 | 21.78715 | 114.05816 | 13156 ft | 393 kts | 186° |
| 2026-05-07 21:09 | 21.75974 | 114.05621 | 13583 ft | 396 kts | 185° |
| 2026-05-07 21:10 | 21.73217 | 114.05436 | 13978 ft | 398 kts | 185° |
| 2026-05-07 21:10 | 21.70444 | 114.05251 | 14354 ft | 401 kts | 185° |
| 2026-05-07 21:10 | 21.67655 | 114.05065 | 14736 ft | 403 kts | 185° |
| 2026-05-07 21:10 | 21.64846 | 114.04875 | 15090 ft | 406 kts | 185° |
| 2026-05-07 21:11 | 21.62021 | 114.04684 | 15446 ft | 408 kts | 185° |
| 2026-05-07 21:11 | 21.59178 | 114.04493 | 15799 ft | 411 kts | 185° |
| 2026-05-07 21:11 | 21.53446 | 114.04108 | 16516 ft | 415 kts | 185° |
| 2026-05-07 21:12 | 21.50558 | 114.03915 | 16865 ft | 417 kts | 185° |
| 2026-05-07 21:12 | 21.47649 | 114.03721 | 17207 ft | 420 kts | 185° |
| 2026-05-07 21:12 | 21.44730 | 114.03526 | 17551 ft | 422 kts | 185° |
| 2026-05-07 21:12 | 21.41789 | 114.03327 | 17887 ft | 424 kts | 186° |
| 2026-05-07 21:13 | 21.38837 | 114.03127 | 18217 ft | 427 kts | 186° |
| 2026-05-07 21:13 | 21.35865 | 114.02927 | 18498 ft | 429 kts | 186° |
| 2026-05-07 21:13 | 21.32881 | 114.02725 | 18774 ft | 431 kts | 186° |
| 2026-05-07 21:13 | 21.29877 | 114.02524 | 19047 ft | 434 kts | 186° |
| 2026-05-07 21:14 | 21.26860 | 114.02321 | 19311 ft | 436 kts | 185° |
| 2026-05-07 21:14 | 21.23822 | 114.02117 | 19579 ft | 438 kts | 185° |
| 2026-05-07 21:14 | 21.20773 | 114.01914 | 19853 ft | 440 kts | 185° |
| 2026-05-07 21:14 | 21.17712 | 114.01710 | 20123 ft | 443 kts | 185° |
| 2026-05-07 21:15 | 21.14626 | 114.01505 | 20384 ft | 445 kts | 185° |
| 2026-05-07 21:15 | 21.11529 | 114.01299 | 20644 ft | 447 kts | 185° |
| 2026-05-07 21:15 | 21.08416 | 114.01092 | 20894 ft | 449 kts | 185° |
| 2026-05-07 21:15 | 21.05289 | 114.00885 | 21158 ft | 452 kts | 185° |
| 2026-05-07 21:16 | 21.02143 | 114.00676 | 21416 ft | 454 kts | 185° |
| 2026-05-07 21:16 | 20.98990 | 114.00466 | 21665 ft | 456 kts | 185° |
| 2026-05-07 21:16 | 20.95848 | 114.00018 | 21883 ft | 456 kts | 195° |
| 2026-05-07 21:16 | 20.92856 | 113.98934 | 22130 ft | 455 kts | 206° |
| 2026-05-07 21:17 | 20.90113 | 113.97262 | 22373 ft | 454 kts | 217° |
| 2026-05-07 21:17 | 20.87588 | 113.95303 | 22627 ft | 455 kts | 218° |
| 2026-05-07 21:17 | 20.85008 | 113.93246 | 22854 ft | 457 kts | 218° |
| 2026-05-07 21:17 | 20.82455 | 113.91206 | 23073 ft | 459 kts | 218° |
| 2026-05-07 21:18 | 20.79885 | 113.89160 | 23303 ft | 461 kts | 218° |
| 2026-05-07 21:18 | 20.77303 | 113.87114 | 23526 ft | 463 kts | 218° |
| 2026-05-07 21:18 | 20.74704 | 113.85059 | 23715 ft | 465 kts | 218° |
| 2026-05-07 21:18 | 20.72096 | 113.83003 | 23914 ft | 466 kts | 218° |
| 2026-05-07 21:19 | 20.69516 | 113.80970 | 24108 ft | 468 kts | 218° |
| 2026-05-07 21:19 | 20.66894 | 113.78906 | 24311 ft | 469 kts | 218° |
| 2026-05-07 21:19 | 20.64263 | 113.76838 | 24502 ft | 470 kts | 218° |
| 2026-05-07 21:19 | 20.61621 | 113.74763 | 24708 ft | 471 kts | 218° |
| 2026-05-07 21:20 | 20.58974 | 113.72684 | 24904 ft | 473 kts | 218° |
| 2026-05-07 21:20 | 20.56320 | 113.70601 | 25100 ft | 474 kts | 218° |
| 2026-05-07 21:20 | 20.53658 | 113.68514 | 25293 ft | 475 kts | 218° |
| 2026-05-07 21:20 | 20.50991 | 113.66423 | 25485 ft | 477 kts | 218° |
| 2026-05-07 21:21 | 20.48312 | 113.64324 | 25672 ft | 478 kts | 218° |
| 2026-05-07 21:21 | 20.45628 | 113.62221 | 25861 ft | 479 kts | 218° |
| 2026-05-07 21:21 | 20.42938 | 113.60115 | 26050 ft | 480 kts | 218° |
| 2026-05-07 21:21 | 20.40240 | 113.58004 | 26230 ft | 482 kts | 218° |
| 2026-05-07 21:22 | 20.37531 | 113.55885 | 26406 ft | 483 kts | 218° |
| 2026-05-07 21:22 | 20.34818 | 113.53764 | 26585 ft | 484 kts | 218° |
| 2026-05-07 21:22 | 20.32097 | 113.51636 | 26759 ft | 486 kts | 217° |
| 2026-05-07 21:22 | 20.29367 | 113.49504 | 26934 ft | 487 kts | 217° |
| 2026-05-07 21:23 | 20.26630 | 113.47367 | 27112 ft | 488 kts | 217° |
| 2026-05-07 21:23 | 20.23888 | 113.45226 | 27284 ft | 489 kts | 217° |
| 2026-05-07 21:23 | 20.21138 | 113.43080 | 27455 ft | 490 kts | 217° |
| 2026-05-07 21:23 | 20.18383 | 113.40931 | 27632 ft | 492 kts | 217° |
| 2026-05-07 21:24 | 20.15617 | 113.38775 | 27786 ft | 493 kts | 217° |
| 2026-05-07 21:24 | 20.12846 | 113.36615 | 27932 ft | 494 kts | 217° |
| 2026-05-07 21:24 | 20.10066 | 113.34451 | 28090 ft | 496 kts | 217° |
| 2026-05-07 21:24 | 20.07279 | 113.32282 | 28314 ft | 495 kts | 217° |
| 2026-05-07 21:25 | 20.04502 | 113.30121 | 28565 ft | 494 kts | 217° |
| 2026-05-07 21:25 | 20.01728 | 113.27965 | 28804 ft | 494 kts | 217° |
| 2026-05-07 21:25 | 19.98962 | 113.25814 | 29027 ft | 493 kts | 217° |
| 2026-05-07 21:25 | 19.96188 | 113.23659 | 29245 ft | 493 kts | 217° |
| 2026-05-07 21:26 | 19.93420 | 113.21509 | 29461 ft | 493 kts | 217° |
| 2026-05-07 21:26 | 19.90654 | 113.19361 | 29668 ft | 492 kts | 217° |
| 2026-05-07 21:26 | 19.87925 | 113.17244 | 29872 ft | 492 kts | 217° |
| 2026-05-07 21:26 | 19.85162 | 113.15100 | 30050 ft | 492 kts | 217° |
| 2026-05-07 21:27 | 19.82358 | 113.12927 | 30180 ft | 493 kts | 217° |
| 2026-05-07 21:27 | 19.79623 | 113.10807 | 30299 ft | 493 kts | 217° |
| 2026-05-07 21:27 | 19.76845 | 113.08656 | 30430 ft | 494 kts | 217° |
| 2026-05-07 21:27 | 19.74066 | 113.06504 | 30558 ft | 495 kts | 217° |
| 2026-05-07 21:28 | 19.71283 | 113.04350 | 30698 ft | 495 kts | 217° |
| 2026-05-07 21:28 | 19.68498 | 113.02197 | 30823 ft | 496 kts | 217° |
| 2026-05-07 21:28 | 19.65708 | 113.00040 | 30951 ft | 496 kts | 217° |
| 2026-05-07 21:28 | 19.62907 | 112.97875 | 31098 ft | 497 kts | 217° |
| 2026-05-07 21:29 | 19.60113 | 112.95717 | 31205 ft | 497 kts | 217° |
| 2026-05-07 21:29 | 19.57311 | 112.93554 | 31333 ft | 498 kts | 217° |
| 2026-05-07 21:29 | 19.54510 | 112.91392 | 31455 ft | 498 kts | 217° |
| 2026-05-07 21:29 | 19.51706 | 112.89229 | 31581 ft | 499 kts | 217° |
| 2026-05-07 21:30 | 19.48896 | 112.87063 | 31705 ft | 499 kts | 218° |
| 2026-05-07 21:30 | 19.46086 | 112.84897 | 31827 ft | 500 kts | 218° |
| 2026-05-07 21:30 | 19.40449 | 112.80557 | 31898 ft | 501 kts | 218° |
| 2026-05-07 21:31 | 19.34810 | 112.76221 | 31898 ft | 501 kts | 218° |
| 2026-05-07 21:31 | 19.29167 | 112.71897 | 31898 ft | 500 kts | 217° |
| 2026-05-07 21:32 | 19.23494 | 112.67619 | 31898 ft | 500 kts | 217° |
| 2026-05-07 21:32 | 19.17818 | 112.63352 | 31897 ft | 500 kts | 217° |
| 2026-05-07 21:33 | 19.12185 | 112.59116 | 31900 ft | 500 kts | 217° |
| 2026-05-07 21:33 | 19.06507 | 112.54851 | 31901 ft | 500 kts | 217° |
| 2026-05-07 21:34 | 19.00833 | 112.50590 | 31895 ft | 500 kts | 217° |
| 2026-05-07 21:34 | 18.95175 | 112.46321 | 31897 ft | 500 kts | 217° |
| 2026-05-07 21:35 | 18.89515 | 112.42045 | 31897 ft | 500 kts | 217° |
| 2026-05-07 21:35 | 18.83846 | 112.37770 | 31896 ft | 500 kts | 217° |
| 2026-05-07 21:36 | 18.78174 | 112.33501 | 31897 ft | 500 kts | 217° |
| 2026-05-07 21:36 | 18.72586 | 112.29131 | 31895 ft | 499 kts | 221° |
| 2026-05-07 21:37 | 18.67439 | 112.24216 | 31894 ft | 498 kts | 227° |
| 2026-05-07 21:37 | 18.62838 | 112.18759 | 31900 ft | 497 kts | 233° |
| 2026-05-07 21:38 | 18.58816 | 112.12838 | 31898 ft | 496 kts | 238° |
| 2026-05-07 21:38 | 18.55637 | 112.07801 | 31894 ft | 496 kts | 238° |
| 2026-05-07 21:39 | 18.51815 | 112.01746 | 31894 ft | 496 kts | 238° |
| 2026-05-07 21:39 | 18.47978 | 111.95682 | 31894 ft | 496 kts | 238° |
| 2026-05-07 21:40 | 18.44145 | 111.89633 | 31896 ft | 496 kts | 238° |
| 2026-05-07 21:40 | 18.40301 | 111.83576 | 31897 ft | 497 kts | 238° |
| 2026-05-07 21:41 | 18.36457 | 111.77524 | 31896 ft | 496 kts | 238° |
| 2026-05-07 21:41 | 18.32615 | 111.71482 | 31896 ft | 496 kts | 238° |
| 2026-05-07 21:42 | 18.28771 | 111.65442 | 31894 ft | 496 kts | 237° |
| 2026-05-07 21:42 | 18.24926 | 111.59408 | 31894 ft | 496 kts | 237° |
| 2026-05-07 21:43 | 18.21077 | 111.53371 | 31896 ft | 496 kts | 237° |
| 2026-05-07 21:43 | 18.17225 | 111.47337 | 31893 ft | 497 kts | 237° |
| 2026-05-07 21:44 | 18.13365 | 111.41293 | 31894 ft | 497 kts | 237° |
| 2026-05-07 21:44 | 18.09502 | 111.35251 | 31895 ft | 497 kts | 237° |
| 2026-05-07 21:45 | 18.05638 | 111.29215 | 31895 ft | 497 kts | 237° |
| 2026-05-07 21:45 | 18.01773 | 111.23180 | 31895 ft | 497 kts | 237° |
| 2026-05-07 21:46 | 17.97930 | 111.17186 | 31896 ft | 497 kts | 237° |
| 2026-05-07 21:46 | 17.94063 | 111.11162 | 31898 ft | 497 kts | 237° |
| 2026-05-07 21:47 | 17.90193 | 111.05137 | 31893 ft | 498 kts | 237° |
| 2026-05-07 21:47 | 17.86309 | 110.99096 | 31896 ft | 498 kts | 237° |
| 2026-05-07 21:48 | 17.82427 | 110.93064 | 31895 ft | 498 kts | 237° |
| 2026-05-07 21:48 | 17.78544 | 110.87037 | 31894 ft | 498 kts | 237° |
| 2026-05-07 21:49 | 17.74661 | 110.81014 | 31894 ft | 498 kts | 237° |
| 2026-05-07 21:49 | 17.70775 | 110.74994 | 31894 ft | 497 kts | 237° |
| 2026-05-07 21:50 | 17.66889 | 110.68977 | 31892 ft | 497 kts | 237° |
| 2026-05-07 21:50 | 17.63002 | 110.62964 | 31893 ft | 497 kts | 237° |
| 2026-05-07 21:51 | 17.59113 | 110.56955 | 31892 ft | 497 kts | 237° |
| 2026-05-07 21:51 | 17.55225 | 110.50952 | 31892 ft | 497 kts | 237° |
| 2026-05-07 21:52 | 17.51333 | 110.44951 | 31891 ft | 497 kts | 237° |
| 2026-05-07 21:52 | 17.47438 | 110.38950 | 31892 ft | 497 kts | 237° |
| 2026-05-07 21:53 | 17.43541 | 110.32956 | 31892 ft | 497 kts | 237° |
| 2026-05-07 21:53 | 17.39661 | 110.26955 | 31893 ft | 497 kts | 238° |
| 2026-05-07 21:54 | 17.35811 | 110.20923 | 31888 ft | 498 kts | 238° |
| 2026-05-07 21:54 | 17.31953 | 110.14886 | 31894 ft | 499 kts | 238° |
| 2026-05-07 21:55 | 17.28116 | 110.08894 | 31892 ft | 498 kts | 238° |
| 2026-05-07 21:55 | 17.24249 | 110.02867 | 31889 ft | 498 kts | 238° |
| 2026-05-07 21:56 | 17.20375 | 109.96835 | 31889 ft | 498 kts | 238° |
| 2026-05-07 21:56 | 17.16507 | 109.90818 | 31889 ft | 498 kts | 238° |
| 2026-05-07 21:57 | 17.12634 | 109.84799 | 31892 ft | 498 kts | 238° |
| 2026-05-07 21:57 | 17.08761 | 109.78785 | 31891 ft | 498 kts | 238° |
| 2026-05-07 21:58 | 17.04885 | 109.72772 | 31891 ft | 499 kts | 238° |
| 2026-05-07 21:58 | 17.00996 | 109.66744 | 31889 ft | 499 kts | 238° |
| 2026-05-07 21:59 | 16.97108 | 109.60723 | 31891 ft | 499 kts | 237° |
| 2026-05-07 21:59 | 16.93217 | 109.54704 | 31899 ft | 499 kts | 237° |
| 2026-05-07 22:00 | 16.89324 | 109.48689 | 31886 ft | 499 kts | 237° |
| 2026-05-07 22:00 | 16.85427 | 109.42673 | 31891 ft | 500 kts | 237° |
| 2026-05-07 22:01 | 16.81528 | 109.36650 | 31887 ft | 500 kts | 237° |
| 2026-05-07 22:01 | 16.77635 | 109.30623 | 31888 ft | 501 kts | 237° |
| 2026-05-07 22:02 | 16.73728 | 109.24587 | 31887 ft | 502 kts | 237° |
| 2026-05-07 22:02 | 16.69814 | 109.18549 | 31889 ft | 502 kts | 237° |
| 2026-05-07 22:03 | 16.65900 | 109.12519 | 31889 ft | 502 kts | 237° |
| 2026-05-07 22:03 | 16.61987 | 109.06495 | 31890 ft | 501 kts | 237° |
| 2026-05-07 22:04 | 16.58075 | 109.00481 | 31884 ft | 500 kts | 237° |
| 2026-05-07 22:04 | 16.54144 | 108.94472 | 31889 ft | 501 kts | 237° |
| 2026-05-07 22:05 | 16.50167 | 108.88501 | 31886 ft | 501 kts | 237° |
| 2026-05-07 22:05 | 16.46173 | 108.82519 | 31889 ft | 503 kts | 237° |
| 2026-05-07 22:06 | 16.42177 | 108.76534 | 31893 ft | 502 kts | 237° |
| 2026-05-07 22:06 | 16.38192 | 108.70569 | 31899 ft | 501 kts | 237° |
| 2026-05-07 22:07 | 16.34222 | 108.64597 | 31892 ft | 501 kts | 237° |
| 2026-05-07 22:07 | 16.30347 | 108.58570 | 31896 ft | 500 kts | 238° |
| 2026-05-07 22:08 | 16.26475 | 108.52537 | 31895 ft | 500 kts | 237° |
| 2026-05-07 22:08 | 16.22591 | 108.46512 | 31900 ft | 500 kts | 237° |
| 2026-05-07 22:09 | 16.18696 | 108.40482 | 31898 ft | 503 kts | 237° |
| 2026-05-07 22:09 | 16.14810 | 108.34481 | 31899 ft | 503 kts | 237° |
| 2026-05-07 22:10 | 16.10898 | 108.28435 | 31898 ft | 503 kts | 238° |
| 2026-05-07 22:10 | 16.07338 | 108.22175 | 31903 ft | 502 kts | 244° |
| 2026-05-07 22:11 | 16.04428 | 108.15584 | 31900 ft | 500 kts | 250° |
| 2026-05-07 22:11 | 16.02193 | 108.08736 | 31903 ft | 499 kts | 255° |
| 2026-05-07 22:12 | 16.00254 | 108.01795 | 31900 ft | 499 kts | 255° |
| 2026-05-07 22:12 | 15.98316 | 107.94862 | 31913 ft | 499 kts | 255° |
| 2026-05-07 22:13 | 15.96372 | 107.87928 | 31919 ft | 499 kts | 255° |
| 2026-05-07 22:13 | 15.94476 | 107.80978 | 31922 ft | 499 kts | 256° |
| 2026-05-07 22:14 | 15.92588 | 107.74025 | 31927 ft | 500 kts | 256° |
| 2026-05-07 22:14 | 15.90684 | 107.67056 | 32016 ft | 501 kts | 255° |
| 2026-05-07 22:15 | 15.89720 | 107.63579 | 32234 ft | 500 kts | 255° |
| 2026-05-07 22:15 | 15.88732 | 107.60116 | 32454 ft | 498 kts | 255° |
| 2026-05-07 22:15 | 15.87739 | 107.56667 | 32616 ft | 498 kts | 255° |
| 2026-05-07 22:15 | 15.86746 | 107.53220 | 32766 ft | 498 kts | 255° |
| 2026-05-07 22:16 | 15.85754 | 107.49776 | 32905 ft | 498 kts | 255° |
| 2026-05-07 22:16 | 15.84762 | 107.46326 | 33052 ft | 497 kts | 255° |
| 2026-05-07 22:16 | 15.83770 | 107.42877 | 33187 ft | 497 kts | 255° |
| 2026-05-07 22:16 | 15.82791 | 107.39479 | 33323 ft | 497 kts | 255° |
| 2026-05-07 22:17 | 15.81799 | 107.36034 | 33443 ft | 497 kts | 255° |
| 2026-05-07 22:17 | 15.80806 | 107.32583 | 33540 ft | 498 kts | 256° |
| 2026-05-07 22:17 | 15.79796 | 107.29137 | 33647 ft | 499 kts | 254° |
| 2026-05-07 22:17 | 15.78578 | 107.25756 | 33763 ft | 500 kts | 249° |
| 2026-05-07 22:18 | 15.77085 | 107.22480 | 33892 ft | 502 kts | 244° |
| 2026-05-07 22:18 | 15.73314 | 107.16354 | 33954 ft | 505 kts | 234° |
| 2026-05-07 22:19 | 15.68570 | 107.10947 | 33959 ft | 508 kts | 224° |
| 2026-05-07 22:19 | 15.63246 | 107.06106 | 33956 ft | 508 kts | 222° |
| 2026-05-07 22:20 | 15.57900 | 107.01326 | 33938 ft | 506 kts | 222° |
| 2026-05-07 22:20 | 15.52579 | 106.96553 | 33933 ft | 505 kts | 222° |
| 2026-05-07 22:21 | 15.47263 | 106.91774 | 33934 ft | 505 kts | 222° |
| 2026-05-07 22:21 | 15.41952 | 106.86997 | 33919 ft | 506 kts | 222° |
| 2026-05-07 22:22 | 15.36633 | 106.82215 | 33914 ft | 506 kts | 222° |
| 2026-05-07 22:22 | 15.31323 | 106.77441 | 33915 ft | 504 kts | 222° |
| 2026-05-07 22:23 | 15.26020 | 106.72682 | 33911 ft | 504 kts | 222° |